createdAt,value
2019-04-06T00:01:00.380Z,87.00
2019-04-06T00:03:55.430Z,87.00
2019-04-06T00:06:50.899Z,87.00
2019-04-06T00:09:45.913Z,86.70
2019-04-06T00:12:40.499Z,86.80
2019-04-06T00:15:35.838Z,87.10
2019-04-06T00:18:30.720Z,87.30
2019-04-06T00:21:26.229Z,87.70
2019-04-06T00:24:22.142Z,87.70
2019-04-06T00:27:17.588Z,87.80
2019-04-06T00:30:13.145Z,87.90
2019-04-06T00:33:10.481Z,88.50
2019-04-06T00:36:05.541Z,89.40
2019-04-06T00:39:05.731Z,89.70
2019-04-06T00:42:01.084Z,89.40
2019-04-06T00:44:56.386Z,89.40
2019-04-06T00:47:51.303Z,89.20
2019-04-06T00:50:46.229Z,89.20
2019-04-06T00:53:40.936Z,89.10
2019-04-06T00:56:35.567Z,89.00
2019-04-06T00:59:30.119Z,89.40
2019-04-06T01:02:24.640Z,90.00
2019-04-06T01:05:19.743Z,90.10
2019-04-06T01:08:14.593Z,90.10
2019-04-06T01:11:09.591Z,90.30
2019-04-06T01:14:04.302Z,90.30
2019-04-06T01:16:59.179Z,90.30
2019-04-06T01:19:54.325Z,90.40
2019-04-06T01:22:49.433Z,90.40
2019-04-06T01:25:44.167Z,90.50
2019-04-06T01:28:39.838Z,90.60
2019-04-06T01:31:34.754Z,90.70
2019-04-06T01:34:29.600Z,90.80
2019-04-06T01:37:25.106Z,91.00
2019-04-06T01:40:20.130Z,91.10
2019-04-06T01:43:16.622Z,91.20
2019-04-06T01:46:11.622Z,91.50
2019-04-06T01:49:06.598Z,91.50
2019-04-06T01:52:01.533Z,91.60
2019-04-06T01:54:59.143Z,91.60
2019-04-06T01:57:54.276Z,91.70
2019-04-06T02:01:27.079Z,91.70
2019-04-06T02:04:22.104Z,91.50
2019-04-06T02:07:16.860Z,91.60
2019-04-06T02:09:55.625Z,91.70
2019-04-06T02:12:32.749Z,91.70
2019-04-06T02:15:11.027Z,91.60
2019-04-06T02:17:49.087Z,91.70
2019-04-06T02:20:26.729Z,91.70
2019-04-06T02:23:04.601Z,92.10
2019-04-06T02:25:41.965Z,91.90
2019-04-06T02:28:19.349Z,92.10
2019-04-06T02:31:07.690Z,92.10
2019-04-06T02:34:02.702Z,92.20
2019-04-06T02:36:58.891Z,92.10
2019-04-06T02:39:58.669Z,92.20
2019-04-06T02:42:41.677Z,92.20
2019-04-06T02:45:18.965Z,92.30
2019-04-06T02:47:56.920Z,92.30
2019-04-06T02:50:34.475Z,92.40
2019-04-06T02:53:15.193Z,92.50
2019-04-06T02:55:52.691Z,92.30
2019-04-06T02:58:29.919Z,92.20
2019-04-06T03:01:07.238Z,92.00
2019-04-06T03:03:44.895Z,91.70
2019-04-06T03:06:22.906Z,91.50
2019-04-06T03:09:00.604Z,91.30
2019-04-06T03:11:38.340Z,90.90
2019-04-06T03:14:16.084Z,90.90
2019-04-06T03:16:53.325Z,90.80
2019-04-06T03:19:30.679Z,90.80
2019-04-06T03:22:08.365Z,90.80
2019-04-06T03:24:46.058Z,91.00
2019-04-06T03:27:23.380Z,91.20
2019-04-06T03:30:02.422Z,91.50
2019-04-06T03:32:40.485Z,91.70
2019-04-06T03:35:18.996Z,91.80
2019-04-06T03:37:56.671Z,91.60
2019-04-06T03:40:34.373Z,91.20
2019-04-06T03:43:11.689Z,90.90
2019-04-06T03:45:49.050Z,90.80
2019-04-06T03:48:26.339Z,90.80
2019-04-06T03:51:03.657Z,91.30
2019-04-06T03:53:40.942Z,92.00
2019-04-06T03:56:18.527Z,92.40
2019-04-06T03:58:56.407Z,93.70
2019-04-06T04:01:34.322Z,94.50
2019-04-06T04:04:11.858Z,94.40
2019-04-06T04:06:49.692Z,94.40
2019-04-06T04:09:26.936Z,94.40
2019-04-06T04:12:04.548Z,94.40
2019-04-06T04:14:41.907Z,94.00
2019-04-06T04:17:19.035Z,93.90
2019-04-06T04:19:56.723Z,94.00
2019-04-06T04:22:35.464Z,92.90
2019-04-06T04:25:14.384Z,92.50
2019-04-06T04:27:51.667Z,92.40
2019-04-06T04:30:33.180Z,92.00
2019-04-06T04:33:09.404Z,91.90
2019-04-06T04:35:47.186Z,91.70
2019-04-06T04:38:26.335Z,91.60
2019-04-06T04:41:03.636Z,91.40
2019-04-06T04:43:40.944Z,91.20
2019-04-06T04:46:18.669Z,91.00
2019-04-06T04:48:56.053Z,90.70
2019-04-06T04:51:45.352Z,90.30
2019-04-06T04:54:23.134Z,89.60
2019-04-06T04:57:00.860Z,88.70
2019-04-06T04:59:38.895Z,87.50
2019-04-06T05:02:16.030Z,86.40
2019-04-06T05:04:53.506Z,85.10
2019-04-06T05:07:30.696Z,84.60
2019-04-06T05:10:08.614Z,83.30
2019-04-06T05:12:45.728Z,83.20
2019-04-06T05:15:33.970Z,82.50
2019-04-06T05:18:11.271Z,82.30
2019-04-06T05:20:48.674Z,82.00
2019-04-06T05:23:29.378Z,81.90
2019-04-06T05:26:07.026Z,82.50
2019-04-06T05:28:44.892Z,79.70
2019-04-06T05:31:22.428Z,80.20
2019-04-06T05:33:59.700Z,80.10
2019-04-06T05:36:37.117Z,81.10
2019-04-06T05:39:15.279Z,80.00
2019-04-06T05:41:53.361Z,78.90
2019-04-06T05:44:31.016Z,78.60
2019-04-06T05:47:08.233Z,78.10
2019-04-06T05:50:03.364Z,77.60
2019-04-06T05:52:41.273Z,75.80
2019-04-06T05:55:19.016Z,74.40
2019-04-06T05:58:03.735Z,74.30
2019-04-06T06:00:39.854Z,70.70
2019-04-06T06:03:15.480Z,69.20
2019-04-06T06:05:53.578Z,71.10
2019-04-06T06:08:30.662Z,67.50
2019-04-06T06:11:08.593Z,62.70
2019-04-06T06:13:46.435Z,63.80
2019-04-06T06:16:24.167Z,65.30
2019-04-06T06:19:01.317Z,61.70
2019-04-06T06:21:38.667Z,59.90
2019-04-06T06:24:16.110Z,59.50
2019-04-06T06:26:54.502Z,59.00
2019-04-06T06:29:32.853Z,59.40
2019-04-06T06:32:21.985Z,58.40
2019-04-06T06:34:59.797Z,58.80
2019-04-06T06:37:37.213Z,58.30
2019-04-06T06:40:14.839Z,56.80
2019-04-06T06:42:52.162Z,57.10
2019-04-06T06:45:29.521Z,55.30
2019-04-06T06:48:06.939Z,56.00
2019-04-06T06:50:44.323Z,56.40
2019-04-06T06:53:21.569Z,56.90
2019-04-06T06:55:59.516Z,55.00
2019-04-06T06:58:37.026Z,54.10
2019-04-06T07:01:14.322Z,52.30
2019-04-06T07:03:53.612Z,52.70
2019-04-06T07:06:30.959Z,52.30
2019-04-06T07:09:08.946Z,51.50
2019-04-06T07:11:46.153Z,50.70
2019-04-06T07:14:24.249Z,51.20
2019-04-06T07:17:01.612Z,52.20
2019-04-06T07:19:38.868Z,51.30
2019-04-06T07:22:16.617Z,49.20
2019-04-06T07:24:54.920Z,49.80
2019-04-06T07:27:32.239Z,49.40
2019-04-06T07:30:10.263Z,48.20
2019-04-06T07:32:48.710Z,48.50
2019-04-06T07:35:25.900Z,48.60
2019-04-06T07:38:03.458Z,48.70
2019-04-06T07:40:41.876Z,48.80
2019-04-06T07:43:19.322Z,49.60
2019-04-06T07:45:56.796Z,48.00
2019-04-06T07:48:34.423Z,47.30
2019-04-06T07:51:11.991Z,45.70
2019-04-06T07:53:50.706Z,45.20
2019-04-06T07:56:28.135Z,46.40
2019-04-06T07:59:05.557Z,46.00
2019-04-06T08:01:43.322Z,46.40
2019-04-06T08:04:20.593Z,46.00
2019-04-06T08:06:57.863Z,45.80
2019-04-06T08:09:35.636Z,45.40
2019-04-06T08:12:12.931Z,46.40
2019-04-06T08:14:50.245Z,45.40
2019-04-06T08:17:27.541Z,45.80
2019-04-06T08:20:08.131Z,45.70
2019-04-06T08:22:46.197Z,44.10
2019-04-06T08:25:23.603Z,43.40
2019-04-06T08:28:01.444Z,43.80
2019-04-06T08:30:45.553Z,44.10
2019-04-06T08:33:18.442Z,43.60
2019-04-06T08:35:55.589Z,43.30
2019-04-06T08:38:33.030Z,43.30
2019-04-06T08:41:10.269Z,43.20
2019-04-06T08:43:47.364Z,42.70
2019-04-06T08:46:24.611Z,42.60
2019-04-06T08:49:01.779Z,41.60
2019-04-06T08:51:39.278Z,42.20
2019-04-06T08:54:16.457Z,42.30
2019-04-06T08:56:54.059Z,43.10
2019-04-06T08:59:31.584Z,43.00
2019-04-06T09:02:09.078Z,42.90
2019-04-06T09:04:46.416Z,44.70
2019-04-06T09:07:23.620Z,43.60
2019-04-06T09:10:00.917Z,43.80
2019-04-06T09:12:38.382Z,43.70
2019-04-06T09:15:17.478Z,43.70
2019-04-06T09:17:55.288Z,42.70
2019-04-06T09:20:32.565Z,42.70
2019-04-06T09:23:09.739Z,41.40
2019-04-06T09:25:47.476Z,43.00
2019-04-06T09:28:25.467Z,42.80
2019-04-06T09:31:02.777Z,42.30
2019-04-06T09:33:40.090Z,41.40
2019-04-06T09:36:17.388Z,40.50
2019-04-06T09:38:54.651Z,41.10
2019-04-06T09:41:31.839Z,41.40
2019-04-06T09:44:15.002Z,42.70
2019-04-06T09:47:10.313Z,43.00
2019-04-06T09:50:05.768Z,41.20
2019-04-06T09:52:57.697Z,41.70
2019-04-06T09:56:00.652Z,41.00
2019-04-06T09:59:03.494Z,41.30
2019-04-06T10:02:06.251Z,41.70
2019-04-06T10:04:57.819Z,42.30
2019-04-06T10:07:53.549Z,43.60
2019-04-06T10:10:48.753Z,43.60
2019-04-06T10:13:54.218Z,42.90
2019-04-06T10:17:03.144Z,43.30
2019-04-06T10:20:00.861Z,43.30
2019-04-06T10:22:44.160Z,42.80
2019-04-06T10:25:31.755Z,43.50
2019-04-06T10:28:18.726Z,42.70
2019-04-06T10:31:21.800Z,43.30
2019-04-06T10:34:13.893Z,42.40
2019-04-06T10:37:16.661Z,41.90
2019-04-06T10:40:18.959Z,41.70
2019-04-06T10:43:21.686Z,41.30
2019-04-06T10:46:30.413Z,41.80
2019-04-06T10:49:20.324Z,41.80
2019-04-06T10:52:23.177Z,41.80
2019-04-06T10:55:12.787Z,41.30
2019-04-06T10:58:08.316Z,40.90
2019-04-06T11:01:19.964Z,40.80
2019-04-06T11:04:19.856Z,42.20
2019-04-06T11:07:15.078Z,41.30
2019-04-06T11:10:29.836Z,42.50
2019-04-06T11:13:34.066Z,42.60
2019-04-06T11:16:18.770Z,44.80
2019-04-06T11:19:05.712Z,45.00
2019-04-06T11:22:05.386Z,45.40
2019-04-06T11:25:02.137Z,45.20
2019-04-06T11:27:57.172Z,44.70
2019-04-06T11:30:44.854Z,45.10
2019-04-06T11:33:51.344Z,43.80
2019-04-06T11:36:36.829Z,42.90
2019-04-06T11:39:43.802Z,43.20
2019-04-06T11:42:29.459Z,44.10
2019-04-06T11:45:22.500Z,44.50
2019-04-06T11:48:21.793Z,44.40
2019-04-06T11:51:33.593Z,44.40
2019-04-06T11:54:42.287Z,46.30
2019-04-06T11:57:38.607Z,47.00
2019-04-06T12:00:41.081Z,46.50
2019-04-06T12:03:30.517Z,46.80
2019-04-06T12:06:26.722Z,47.60
2019-04-06T12:09:27.771Z,47.80
2019-04-06T12:12:19.341Z,49.20
2019-04-06T12:15:16.013Z,49.60
2019-04-06T12:18:17.596Z,48.70
2019-04-06T12:21:06.391Z,50.00
2019-04-06T12:24:14.939Z,49.60
2019-04-06T12:27:14.185Z,50.30
2019-04-06T12:30:36.998Z,50.00
2019-04-06T12:33:29.278Z,49.20
2019-04-06T12:36:29.147Z,50.10
2019-04-06T12:39:16.633Z,50.10
2019-04-06T12:42:22.961Z,51.80
2019-04-06T12:45:17.457Z,50.80
2019-04-06T12:48:22.318Z,50.10
2019-04-06T12:51:21.935Z,51.10
2019-04-06T12:54:24.340Z,50.50
2019-04-06T12:57:21.445Z,50.00
2019-04-06T13:00:13.716Z,49.70
2019-04-06T13:03:05.598Z,49.90
2019-04-06T13:05:56.205Z,49.40
2019-04-06T13:08:52.500Z,48.90
2019-04-06T13:11:54.130Z,48.50
2019-04-06T13:14:39.142Z,48.90
2019-04-06T13:17:32.678Z,48.90
2019-04-06T13:20:28.025Z,48.50
2019-04-06T13:23:24.595Z,49.40
2019-04-06T13:26:39.804Z,49.80
2019-04-06T13:29:22.580Z,50.30
2019-04-06T13:32:26.183Z,51.10
2019-04-06T13:35:10.377Z,51.20
2019-04-06T13:38:07.412Z,51.10
2019-04-06T13:41:03.877Z,50.00
2019-04-06T13:44:15.381Z,50.00
2019-04-06T13:47:10.222Z,51.00
2019-04-06T13:50:03.189Z,50.30
2019-04-06T13:52:54.100Z,49.70
2019-04-06T13:55:48.923Z,50.40
2019-04-06T13:58:57.579Z,50.80
2019-04-06T14:01:47.518Z,51.00
2019-04-06T14:04:32.402Z,50.80
2019-04-06T14:07:28.797Z,50.60
2019-04-06T14:10:32.285Z,51.10
2019-04-06T14:13:18.097Z,51.60
2019-04-06T14:16:12.081Z,52.20
2019-04-06T14:19:07.518Z,51.80
2019-04-06T14:22:04.299Z,51.40
2019-04-06T14:24:53.702Z,51.10
2019-04-06T14:28:09.836Z,51.10
2019-04-06T14:31:05.463Z,51.60
2019-04-06T14:33:54.079Z,51.50
2019-04-06T14:36:46.396Z,51.20
2019-04-06T14:39:46.321Z,51.30
2019-04-06T14:42:43.098Z,52.10
2019-04-06T14:45:28.006Z,51.60
2019-04-06T14:48:42.635Z,52.10
2019-04-06T14:51:32.909Z,52.20
2019-04-06T14:54:16.349Z,51.60
2019-04-06T14:57:28.473Z,51.60
2019-04-06T15:00:26.185Z,52.10
2019-04-06T15:03:22.481Z,51.90
2019-04-06T15:06:31.481Z,52.20
2019-04-06T15:09:22.118Z,53.30
2019-04-06T15:12:23.305Z,53.30
2019-04-06T15:15:21.147Z,52.50
2019-04-06T15:18:21.095Z,53.00
2019-04-06T15:21:18.759Z,52.50
2019-04-06T15:24:22.921Z,52.40
2019-04-06T15:27:12.366Z,52.60
2019-04-06T15:30:11.555Z,53.00
2019-04-06T15:32:59.211Z,53.30
2019-04-06T15:35:59.259Z,53.90
2019-04-06T15:39:08.759Z,54.40
2019-04-06T15:42:06.221Z,54.70
2019-04-06T15:45:06.359Z,55.00
2019-04-06T15:48:05.559Z,55.50
2019-04-06T15:51:01.658Z,55.80
2019-04-06T15:54:13.303Z,56.30
2019-04-06T15:57:13.072Z,56.00
2019-04-06T16:00:12.362Z,56.80
2019-04-06T16:03:07.464Z,56.40
2019-04-06T16:05:53.895Z,56.90
2019-04-06T16:08:38.851Z,57.60
2019-04-06T16:11:24.276Z,57.50
2019-04-06T16:14:27.603Z,58.30
2019-04-06T16:17:36.099Z,58.20
2019-04-06T16:20:31.110Z,58.70
2019-04-06T16:23:15.600Z,58.90
2019-04-06T16:26:33.368Z,58.80
2019-04-06T16:29:26.983Z,58.50
2019-04-06T16:32:31.039Z,59.30
2019-04-06T16:35:24.713Z,59.30
2019-04-06T16:38:26.930Z,59.80
2019-04-06T16:41:23.357Z,59.70
2019-04-06T16:44:08.155Z,60.10
2019-04-06T16:47:01.421Z,60.70
2019-04-06T16:49:46.953Z,61.30
2019-04-06T16:52:42.420Z,62.20
2019-04-06T16:55:42.787Z,62.50
2019-04-06T16:58:45.850Z,63.10
2019-04-06T17:01:33.675Z,63.70
2019-04-06T17:04:29.519Z,64.30
2019-04-06T17:07:12.864Z,64.00
2019-04-06T17:10:07.923Z,64.60
2019-04-06T17:13:07.181Z,65.50
2019-04-06T17:16:06.369Z,65.60
2019-04-06T17:19:09.578Z,66.10
2019-04-06T17:22:03.749Z,66.60
2019-04-06T17:25:15.663Z,67.00
2019-04-06T17:28:23.828Z,67.90
2019-04-06T17:31:21.124Z,68.80
2019-04-06T17:34:21.586Z,69.40
2019-04-06T17:37:11.076Z,70.10
2019-04-06T17:40:07.425Z,71.30
2019-04-06T17:43:06.690Z,71.90
2019-04-06T17:45:54.072Z,72.40
2019-04-06T17:49:03.352Z,72.40
2019-04-06T17:51:46.363Z,72.50
2019-04-06T17:54:47.233Z,72.90
2019-04-06T17:57:37.006Z,72.90
2019-04-06T18:00:31.475Z,73.10
2019-04-06T18:03:34.866Z,73.60
2019-04-06T18:06:35.765Z,73.80
2019-04-06T18:09:31.995Z,74.00
2019-04-06T18:12:31.813Z,74.70
2019-04-06T18:15:09.874Z,74.90
2019-04-06T18:17:47.103Z,75.30
2019-04-06T18:20:24.475Z,75.50
2019-04-06T18:23:01.800Z,75.50
2019-04-06T18:25:39.211Z,75.40
2019-04-06T18:28:16.509Z,75.80
2019-04-06T18:31:04.028Z,76.10
2019-04-06T18:33:41.285Z,76.00
2019-04-06T18:37:04.333Z,76.00
2019-04-06T18:40:00.243Z,76.00
2019-04-06T18:42:55.467Z,75.70
2019-04-06T18:45:50.250Z,75.60
2019-04-06T18:48:45.117Z,76.10
2019-04-06T18:51:39.958Z,74.90
2019-04-06T18:54:41.472Z,74.90
2019-04-06T18:57:36.870Z,74.40
2019-04-06T19:00:32.138Z,73.90
2019-04-06T19:03:27.545Z,73.40
2019-04-06T19:06:23.737Z,73.10
2019-04-06T19:09:23.048Z,72.70
2019-04-06T19:12:18.257Z,72.00
2019-04-06T19:15:13.935Z,70.50
2019-04-06T19:18:09.019Z,70.30
2019-04-06T19:21:05.143Z,70.50
2019-04-06T19:24:00.693Z,70.90
2019-04-06T19:26:55.452Z,70.50
2019-04-06T19:29:50.326Z,71.30
2019-04-06T19:32:45.136Z,71.40
2019-04-06T19:35:40.421Z,70.70
2019-04-06T19:38:35.152Z,70.00
2019-04-06T19:41:30.536Z,70.10
2019-04-06T19:44:25.234Z,70.20
2019-04-06T19:47:20.194Z,69.70
2019-04-06T19:50:15.644Z,69.50
2019-04-06T19:53:10.401Z,69.90
2019-04-06T19:56:05.782Z,69.70
2019-04-06T19:59:00.824Z,69.80
2019-04-06T20:01:55.502Z,70.50
2019-04-06T20:05:06.161Z,70.50
2019-04-06T20:08:00.836Z,70.50
2019-04-06T20:10:55.667Z,71.00
2019-04-06T20:13:50.661Z,71.40
2019-04-06T20:16:46.534Z,71.80
2019-04-06T20:19:41.695Z,72.50
2019-04-06T20:22:36.593Z,73.30
2019-04-06T20:25:31.160Z,74.20
2019-04-06T20:28:26.157Z,74.80
2019-04-06T20:31:20.835Z,75.70
2019-04-06T20:34:16.334Z,76.50
2019-04-06T20:37:11.661Z,77.30
2019-04-06T20:40:07.577Z,78.10
2019-04-06T20:43:02.815Z,79.20
2019-04-06T20:45:59.164Z,80.10
2019-04-06T20:48:54.247Z,80.90
2019-04-06T20:51:48.955Z,81.60
2019-04-06T20:54:43.853Z,82.10
2019-04-06T20:57:38.661Z,82.80
2019-04-06T21:00:33.791Z,83.70
2019-04-06T21:03:28.727Z,83.60
2019-04-06T21:06:23.781Z,84.00
2019-04-06T21:09:18.960Z,84.70
2019-04-06T21:12:13.795Z,85.30
2019-04-06T21:15:17.882Z,85.40
2019-04-06T21:18:06.643Z,85.80
2019-04-06T21:21:02.013Z,86.10
2019-04-06T21:23:56.965Z,86.80
2019-04-06T21:26:53.188Z,86.70
2019-04-06T21:29:47.944Z,87.30
2019-04-06T21:32:42.627Z,87.50
2019-04-06T21:35:38.116Z,87.70
2019-04-06T21:38:33.192Z,87.80
2019-04-06T21:41:29.061Z,88.20
2019-04-06T21:44:24.057Z,88.60
2019-04-06T21:47:18.710Z,89.30
2019-04-06T21:50:14.322Z,89.70
2019-04-06T21:53:09.440Z,89.60
2019-04-06T21:56:07.339Z,90.00
2019-04-06T21:59:01.632Z,90.10
2019-04-06T22:01:56.903Z,90.30
2019-04-06T22:04:52.132Z,90.80
2019-04-06T22:07:51.107Z,90.60
2019-04-06T22:10:43.746Z,90.70
2019-04-06T22:13:38.740Z,90.80
2019-04-06T22:16:33.649Z,91.00
2019-04-06T22:19:30.403Z,91.10
2019-04-06T22:22:36.917Z,91.50
2019-04-06T22:25:31.553Z,91.40
2019-04-06T22:28:26.877Z,91.50
2019-04-06T22:31:23.217Z,91.60
2019-04-06T22:34:18.315Z,91.90
2019-04-06T22:37:13.123Z,92.10
2019-04-06T22:40:08.646Z,92.40
2019-04-06T22:43:03.992Z,93.20
2019-04-06T22:45:58.971Z,93.40
2019-04-06T22:48:53.718Z,93.60
2019-04-06T22:51:48.377Z,93.80
2019-04-06T22:54:43.554Z,93.80
2019-04-06T22:57:38.953Z,93.90
2019-04-06T23:00:38.993Z,93.90
2019-04-06T23:03:52.629Z,93.90
2019-04-06T23:07:07.525Z,94.00
2019-04-06T23:10:02.922Z,94.10
2019-04-06T23:12:58.107Z,94.10
2019-04-06T23:15:52.808Z,94.10
2019-04-06T23:18:48.100Z,94.20
2019-04-06T23:21:43.054Z,94.40
2019-04-06T23:24:38.930Z,94.60
2019-04-06T23:27:33.751Z,94.80
2019-04-06T23:30:31.801Z,95.00
2019-04-06T23:33:26.780Z,95.20
2019-04-06T23:36:21.725Z,95.50
2019-04-06T23:39:17.181Z,95.60
2019-04-06T23:42:12.464Z,95.70
2019-04-06T23:45:09.120Z,95.70
2019-04-06T23:48:04.380Z,95.90
2019-04-06T23:50:59.901Z,96.00
2019-04-06T23:53:56.198Z,96.20
2019-04-06T23:56:51.347Z,96.30
2019-04-06T23:59:46.196Z,96.40
